Campo Belo, Brazil
Current Conditions -  °F | °C
As of 4:00 PM on Wednesday 28 Jan 2015 (Local Time) from SBGW Reporting Station
Scattered Clouds Scattered Clouds  
Wind Chill: 91°   Ceiling: Unl
Heat Index: 91°   Visibility: 6mi
Dew Point: 61°   Wind: 3mph
Humidity: 36%   Direction: 20°NNE
Pressure: 29.91"   Gusts: NA
Location:  22.5°S, 44.57°W
Report Text: SBGW 281800Z 02003KT 9999 SCT020 FEW025TCU SCT100 33/16 Q1013
Loading
Personal Weather Stations






























Interactive Weather Map New forecast layout! Learn more

10-Day Weather Forecast

Advertisements
Track Severe Weather on mobile